createdAt,value
2022-11-05T00:19:06.216Z,95.2
2022-11-05T00:37:49.988Z,95.4
2022-11-05T00:58:27.245Z,95.8
2022-11-05T01:19:02.075Z,95.8
2022-11-05T01:38:31.754Z,95.9
2022-11-05T01:58:54.917Z,96
2022-11-05T02:38:47.745Z,96.1
2022-11-05T02:57:59.972Z,96.1
2022-11-05T03:18:36.982Z,96.1
2022-11-05T03:38:28.604Z,96.1
2022-11-05T03:58:38.545Z,96.3
2022-11-05T04:18:40.413Z,96.4
2022-11-05T04:38:24.227Z,96.4
2022-11-05T04:58:52.064Z,96.4
2022-11-05T05:19:05.115Z,96.6
2022-11-05T05:38:44.219Z,96.7
2022-11-05T05:59:05.779Z,96.6
2022-11-05T06:17:51.337Z,96.6
2022-11-05T06:39:01.780Z,96.5
2022-11-05T06:57:53.560Z,96.6
2022-11-05T07:18:25.239Z,96.9
2022-11-05T07:38:39.759Z,97
2022-11-05T07:58:41.729Z,96.5
2022-11-05T08:19:19.750Z,95.5
2022-11-05T08:39:20.479Z,94.4
2022-11-05T08:58:46.624Z,92.8
2022-11-05T09:18:30.109Z,91.7
2022-11-05T09:38:31.273Z,89.4
2022-11-05T09:59:15.348Z,88.2
2022-11-05T10:18:24.604Z,87.6
2022-11-05T10:37:41.079Z,87.7
2022-11-05T10:58:54.133Z,89.8
2022-11-05T11:18:40.372Z,89.8
2022-11-05T11:38:56.354Z,81.1
2022-11-05T11:59:09.965Z,70.8
2022-11-05T12:18:31.160Z,74.3
2022-11-05T12:39:05.655Z,77.9
2022-11-05T12:58:15.308Z,68.9
2022-11-05T13:18:27.778Z,69.2
2022-11-05T13:39:05.707Z,65.4
2022-11-05T13:59:06.314Z,61.8
2022-11-05T14:19:20.254Z,63.3
2022-11-05T14:38:22.256Z,66.2
2022-11-05T14:58:43.110Z,70.6
2022-11-05T15:19:11.249Z,71.1
2022-11-05T15:39:28.227Z,80.4
2022-11-05T15:59:24.392Z,85.9
2022-11-05T16:17:33.821Z,92.7
2022-11-05T16:38:18.108Z,95.2
2022-11-05T16:57:44.336Z,96.5
2022-11-05T17:19:04.920Z,97.1
2022-11-05T17:38:07.647Z,97.6
2022-11-05T17:58:25.709Z,98.2
2022-11-05T18:19:49.323Z,98.5
2022-11-05T18:38:08.901Z,98.6
2022-11-05T18:59:22.316Z,98.8
2022-11-05T19:18:54.684Z,99
2022-11-05T19:38:44.960Z,99.2
2022-11-05T19:58:16.702Z,99.3
2022-11-05T20:19:08.407Z,99.3
2022-11-05T20:39:04.995Z,99.4
2022-11-05T20:57:53.940Z,99.5
2022-11-05T21:18:26.690Z,99.6
2022-11-05T21:38:28.429Z,99.6
2022-11-05T21:59:00.443Z,99.6
2022-11-05T22:18:41.796Z,99.7
2022-11-05T22:38:39.350Z,99.8
2022-11-05T22:58:40.047Z,99.9
2022-11-05T23:19:31.742Z,99.9
2022-11-05T23:58:13.863Z,100
